Artas, South Dakota
Current Conditions -  °F | °C
As of 9:52 AM on Monday 24 Nov 2014 (Local Time) from KMBG Reporting Station
Clear Clear  
Wind Chill:   Ceiling: Unl
Heat Index: 19°   Visibility: 10mi
Dew Point: 12°   Wind: 21mph
Humidity: 74%   Direction: 330°NNW
Pressure: 29.82"   Gusts: 30mph
Location:  45.7737°N, 99.5895°W
Report Text: KMBG 241552Z AUTO 33018G26KT 10SM CLR M07/M11 A2982 RMK AO2 PK WND 33029/1536 SLP125 T10721111
Loading
Personal Weather Stations






























Interactive Weather Map New forecast layout! Learn more

10-Day Weather Forecast

Advertisements
Track Severe Weather on mobile